Boca Raton, FL

7:28 AM EST on December 28, 2014 (GMT -0500)
Terra Tranquila | Change Station
CLOSE
Current Station
Personal Weather Station
Location: Boca Raton, FL
Elevation: 30 ft
Nearby Weather Stations

Elev 30 ft 26.34 °N, 80.15 °W | Updated 11 seconds ago

Clear
Clear
63.5 °F
Feels Like 63.5 °F
N
0.0
Wind Variable Wind from South
Gusts 0.0 mph

Today
High -- | Low -- °F
--% Chance of Precip.
Yesterday
High -- | Low -- °F
Precip. -- in
7:07 AM 5:37 PM
Waxing Crescent, 47% visible
Pressure 30.15 in
Visibility 2.5 miles
Clouds Few 2100 ft
Scattered Clouds 3000 ft
Dew Point 61 °F
Humidity 93%
Rainfall 0.00 in
Snow Depth Not available.
UV 0 out of 12
Pollen 4.90 out of 12
Air Quality Not available.
Flu Activity Not available.
SPECI KPMP 281218Z AUTO 00000KT 2 1/2SM BR FEW021 SCT030 19/17 A3015 RMK AO2 VIS 1 1/2V5 T01890172

More Conditions Fewer Conditions

Pressure 30.15 in
Visibility 2.5 miles
Clouds Few 2100 ft
Scattered Clouds 3000 ft
Dew Point 61 °F
Humidity 93%
Rainfall 0.00 in
Snow Depth Not available.
UV 0 out of 12
Pollen 4.90 out of 12
Air Quality Not available.
Flu Activity Not available.
SPECI KPMP 281218Z AUTO 00000KT 2 1/2SM BR FEW021 SCT030 19/17 A3015 RMK AO2 VIS 1 1/2V5 T01890172

More Conditions Fewer Conditions

10-Day Weather Forecast

Almanac

Astronomy

Dec. 28, 2014 Rise Set
Actual Time
Civil Twilight
Nautical Twilight
Astronomical Twilight
Moon
Length of Visible Light
Length of Day
Tomorrow will be .
, % of the Moon is Illuminated

Today's Extremes

State Highs State Lows

Community

WunderPhotos

Upload Photos

1,781,238 photos uploaded!

WunderBlogs® & News

Nearby

Air Quality

  Air Quality AQ Index Pollutant
Not available.

Snow Depth

Station Depth Elevation

Earthquake Activity

City Distance Mag. Time & Date
Minimum magnitude displayed is 2.5.

Coastal Water Temperatures

Place Temperature

Nearby Weather Stations